Arapahoe, Nebraska
Current Conditions -  °F | °C
As of 1:55 PM on Thursday 27 Nov 2014 (Local Time) from KHDE Reporting Station
Clear Clear  
Wind Chill: 32°   Ceiling: Unl
Heat Index: 40°   Visibility: 10mi
Dew Point: 20°   Wind: 16mph
Humidity: 44%   Direction: 170°S
Pressure: 30.18"   Gusts: 23mph
Location:  40.3°N, 99.9°W
Report Text: KHDE 271955Z AUTO 17014G20KT 10SM CLR 05/M07 A3018 RMK AO2 T00451067
Loading
Personal Weather Stations






























Interactive Weather Map New forecast layout! Learn more

10-Day Weather Forecast

Advertisements
Track Severe Weather on mobile